Time;durP1;ratioP1;P1;durP2;ratioP2;P2;SDS_P1;SDS_P2;PMS_P1;PMS_P2;Temp;Humidity;BMP_temperature;BMP_pressure;BME280_temperature;BME280_humidity;BME280_pressure;Samples;Min_cycle;Max_cycle;Signal;HPM_P1;HPM_P2
2020/12/26 00:00:21;;;;;;;13.70;6.70;;;4.30;99.90;;;;;;5011398;28;20180;-71
2020/12/26 00:02:47;;;;;;;10.53;6.93;;;4.30;99.90;;;;;;4997436;28;20291;-72
2020/12/26 00:05:13;;;;;;;12.60;6.57;;;4.40;99.90;;;;;;5012506;28;20513;-72
2020/12/26 00:07:38;;;;;;;10.23;8.00;;;4.40;99.90;;;;;;5000874;28;20181;-72
2020/12/26 00:10:04;;;;;;;10.07;6.60;;;4.40;99.90;;;;;;5012797;28;20648;-72
2020/12/26 00:12:30;;;;;;;9.70;7.90;;;4.40;99.90;;;;;;5012660;28;20195;-71
2020/12/26 00:14:56;;;;;;;12.80;8.33;;;4.40;99.90;;;;;;5012985;28;20485;-72
2020/12/26 00:17:23;;;;;;;9.90;7.23;;;4.40;99.90;;;;;;5012911;28;20214;-71
2020/12/26 00:19:48;;;;;;;11.13;8.37;;;4.40;99.90;;;;;;5012873;28;20222;-71
2020/12/26 00:22:14;;;;;;;13.03;8.53;;;4.40;99.90;;;;;;5012426;28;20451;-71
2020/12/26 00:24:40;;;;;;;11.93;8.80;;;4.40;99.90;;;;;;5012067;28;20184;-71
2020/12/26 00:27:05;;;;;;;11.60;9.07;;;4.50;99.90;;;;;;5011550;28;20232;-72
2020/12/26 00:29:31;;;;;;;14.40;8.83;;;4.40;99.90;;;;;;5012715;28;20184;-71
2020/12/26 00:31:56;;;;;;;13.97;8.90;;;4.40;99.90;;;;;;5012584;28;20274;-71
2020/12/26 00:34:22;;;;;;;12.80;9.07;;;4.30;99.90;;;;;;5012613;28;20250;-72
2020/12/26 00:36:48;;;;;;;12.27;10.30;;;4.20;99.90;;;;;;5012579;28;20588;-71
2020/12/26 00:39:14;;;;;;;12.23;8.93;;;4.30;99.90;;;;;;5010832;28;20176;-71
2020/12/26 00:41:39;;;;;;;19.00;10.77;;;4.30;99.90;;;;;;5008935;28;20953;-72
2020/12/26 00:44:05;;;;;;;13.63;10.97;;;4.10;99.90;;;;;;5008039;28;20191;-71
2020/12/26 00:46:31;;;;;;;15.50;10.73;;;4.20;99.90;;;;;;5012309;28;20270;-72
2020/12/26 00:48:57;;;;;;;15.97;10.83;;;4.20;99.90;;;;;;5012347;28;20439;-71
2020/12/26 00:51:22;;;;;;;26.13;11.33;;;4.20;99.90;;;;;;5011988;28;20215;-71
2020/12/26 00:53:48;;;;;;;14.40;10.77;;;4.20;99.90;;;;;;5012266;28;20181;-71
2020/12/26 00:56:13;;;;;;;13.13;10.87;;;4.20;99.90;;;;;;5012254;28;20251;-71
2020/12/26 00:58:39;;;;;;;15.70;10.50;;;4.10;99.90;;;;;;5010887;28;20270;-71
2020/12/26 01:01:04;;;;;;;17.77;11.03;;;4.00;99.90;;;;;;5011833;28;20200;-72
2020/12/26 01:03:30;;;;;;;13.33;11.50;;;4.20;99.90;;;;;;5044211;28;20180;-72
2020/12/26 01:05:56;;;;;;;18.47;13.27;;;4.10;99.90;;;;;;5011206;28;20180;-71
2020/12/26 01:08:22;;;;;;;15.87;12.13;;;4.10;99.90;;;;;;5011059;28;20212;-72
2020/12/26 01:10:47;;;;;;;19.77;13.87;;;4.20;99.90;;;;;;5011783;28;20207;-71
2020/12/26 01:13:13;;;;;;;16.37;12.77;;;4.20;99.90;;;;;;5043424;28;20180;-72
2020/12/26 01:15:38;;;;;;;21.83;11.73;;;4.10;99.90;;;;;;5004402;28;20198;-72
2020/12/26 01:18:04;;;;;;;26.43;12.37;;;4.20;99.90;;;;;;5012319;28;20203;-72
2020/12/26 01:20:30;;;;;;;18.97;15.60;;;4.20;99.90;;;;;;5011704;28;20617;-71
2020/12/26 01:22:55;;;;;;;19.43;12.67;;;4.10;99.90;;;;;;5010797;28;20214;-71
2020/12/26 01:25:21;;;;;;;17.90;12.57;;;4.10;99.90;;;;;;5011873;28;20431;-71
2020/12/26 01:27:47;;;;;;;21.80;13.90;;;4.10;99.90;;;;;;5010882;28;20233;-71
2020/12/26 01:30:12;;;;;;;18.77;14.00;;;4.20;99.90;;;;;;5010840;28;20188;-72
2020/12/26 01:32:39;;;;;;;16.60;13.53;;;4.20;99.90;;;;;;5010035;28;20227;-72
2020/12/26 01:35:04;;;;;;;23.20;11.80;;;4.30;99.90;;;;;;5010891;28;20184;-72
2020/12/26 01:37:30;;;;;;;14.40;11.90;;;4.30;99.90;;;;;;5014325;28;20445;-72
2020/12/26 01:39:56;;;;;;;17.20;13.07;;;4.40;99.90;;;;;;5015507;28;20211;-71
2020/12/26 01:42:22;;;;;;;15.70;12.63;;;4.40;99.90;;;;;;5047232;28;20196;-71
2020/12/26 01:44:47;;;;;;;18.43;13.17;;;4.50;99.90;;;;;;5014506;28;20176;-72
2020/12/26 01:47:15;;;;;;;23.53;14.23;;;4.40;99.90;;;;;;5014605;28;20853;-72
2020/12/26 01:49:41;;;;;;;18.10;12.73;;;4.30;99.90;;;;;;5012170;28;20237;-72
2020/12/26 01:52:09;;;;;;;17.97;11.83;;;4.30;99.90;;;;;;5015307;28;20463;-72
2020/12/26 01:54:35;;;;;;;15.60;12.30;;;4.30;99.90;;;;;;5013125;28;20427;-72
2020/12/26 01:57:02;;;;;;;16.63;13.30;;;4.20;99.90;;;;;;5014840;28;20427;-72
2020/12/26 01:59:28;;;;;;;18.80;12.70;;;4.10;99.90;;;;;;5015459;28;20435;-72
2020/12/26 02:01:57;;;;;;;19.47;12.40;;;4.10;99.90;;;;;;5015202;28;20459;-72
2020/12/26 02:04:23;;;;;;;18.50;13.17;;;4.10;99.90;;;;;;5014159;28;20433;-71
2020/12/26 02:06:52;;;;;;;16.83;12.20;;;4.10;99.90;;;;;;5013102;28;20426;-72
2020/12/26 02:09:18;;;;;;;15.67;10.90;;;4.10;99.90;;;;;;5015376;28;20548;-72
2020/12/26 02:11:44;;;;;;;15.50;10.83;;;4.20;99.90;;;;;;5014849;28;20459;-72
2020/12/26 02:14:09;;;;;;;18.80;10.40;;;4.20;99.90;;;;;;5013972;28;20435;-72
2020/12/26 02:16:52;;;;;;;14.93;10.80;;;4.10;99.90;;;;;;5015130;28;20211;-72
2020/12/26 02:19:20;;;;;;;15.40;11.17;;;4.20;99.90;;;;;;5015217;28;20249;-72
2020/12/26 02:21:46;;;;;;;13.30;10.67;;;4.20;99.90;;;;;;5013218;28;20875;-72
2020/12/26 02:24:12;;;;;;;18.30;10.93;;;4.20;99.90;;;;;;5012513;28;20446;-72
2020/12/26 02:26:38;;;;;;;23.93;10.93;;;4.20;99.90;;;;;;5013565;28;20254;-72
2020/12/26 02:29:05;;;;;;;13.47;11.00;;;4.00;99.90;;;;;;5014385;28;20474;-72
2020/12/26 02:31:31;;;;;;;14.90;11.03;;;4.00;99.90;;;;;;5013820;28;20524;-71
2020/12/26 02:33:56;;;;;;;17.83;11.73;;;3.90;99.90;;;;;;5014362;28;20793;-72
2020/12/26 02:36:22;;;;;;;15.70;11.43;;;3.90;99.90;;;;;;5014123;28;20431;-71
2020/12/26 02:38:48;;;;;;;22.77;11.80;;;3.90;99.90;;;;;;5013655;28;20179;-72
2020/12/26 02:41:13;;;;;;;19.53;12.90;;;3.80;99.90;;;;;;5014251;28;20210;-71
2020/12/26 02:43:39;;;;;;;21.43;14.10;;;3.80;99.90;;;;;;5013767;28;20238;-71
2020/12/26 02:46:05;;;;;;;20.57;14.00;;;3.90;99.90;;;;;;5046061;28;20206;-72
2020/12/26 02:48:31;;;;;;;18.27;14.17;;;4.00;99.90;;;;;;5013547;28;20454;-71
2020/12/26 02:50:57;;;;;;;17.93;13.73;;;3.80;99.90;;;;;;5011127;28;20458;-71
2020/12/26 02:53:23;;;;;;;23.77;13.13;;;3.80;99.90;;;;;;5013211;28;20600;-71
2020/12/26 02:55:49;;;;;;;19.07;13.43;;;3.70;99.90;;;;;;5012041;28;21095;-71
2020/12/26 02:58:15;;;;;;;16.73;14.23;;;3.80;99.90;;;;;;5013668;28;20439;-72
2020/12/26 03:00:41;;;;;;;21.57;13.43;;;3.70;99.90;;;;;;5007148;28;20940;-71
2020/12/26 03:03:07;;;;;;;16.80;13.73;;;3.80;99.90;;;;;;5009243;28;20216;-72
2020/12/26 03:05:33;;;;;;;20.40;13.03;;;3.70;99.90;;;;;;5044998;28;20903;-71
2020/12/26 03:07:58;;;;;;;17.33;13.83;;;3.60;99.90;;;;;;5012622;28;20575;-71
2020/12/26 03:10:24;;;;;;;16.80;13.70;;;3.70;99.90;;;;;;5011424;28;20251;-71
2020/12/26 03:12:50;;;;;;;19.73;14.50;;;3.60;99.90;;;;;;5044552;28;20195;-71
2020/12/26 03:15:15;;;;;;;17.30;13.17;;;3.60;99.90;;;;;;5013516;28;20191;-71
2020/12/26 03:17:41;;;;;;;22.47;14.37;;;3.50;99.90;;;;;;5013592;28;20179;-71
2020/12/26 03:20:07;;;;;;;16.93;13.97;;;3.50;99.90;;;;;;5012630;28;20446;-71
2020/12/26 03:22:33;;;;;;;18.87;13.60;;;3.50;99.90;;;;;;5041720;28;20452;-72
2020/12/26 03:24:59;;;;;;;18.57;14.53;;;3.50;99.90;;;;;;5012811;28;20204;-71
2020/12/26 03:27:25;;;;;;;21.77;15.50;;;3.50;99.90;;;;;;5012723;28;20194;-71
2020/12/26 03:29:52;;;;;;;24.63;13.63;;;3.50;99.90;;;;;;5013586;28;20441;-71
2020/12/26 03:32:18;;;;;;;27.80;15.03;;;3.50;99.90;;;;;;5012984;28;20840;-71
2020/12/26 03:34:44;;;;;;;18.30;13.93;;;3.60;99.90;;;;;;5012661;28;20427;-71
2020/12/26 03:37:10;;;;;;;19.80;14.20;;;3.60;99.90;;;;;;5013859;28;20514;-71
2020/12/26 03:39:36;;;;;;;19.40;13.53;;;3.60;99.90;;;;;;5012631;28;20255;-71
2020/12/26 03:42:06;;;;;;;20.83;15.17;;;3.70;99.90;;;;;;5012264;28;20219;-72
2020/12/26 03:44:32;;;;;;;23.23;14.97;;;3.70;99.90;;;;;;5011902;28;20442;-71
2020/12/26 03:46:58;;;;;;;23.37;16.00;;;3.70;99.90;;;;;;5012108;28;20841;-72
2020/12/26 03:49:24;;;;;;;21.13;16.27;;;3.80;99.90;;;;;;5012312;28;20448;-71
2020/12/26 03:51:50;;;;;;;18.67;14.33;;;3.70;99.90;;;;;;5013235;28;20548;-71
2020/12/26 03:54:16;;;;;;;22.40;15.37;;;3.70;99.90;;;;;;5010413;28;20446;-72
2020/12/26 03:56:43;;;;;;;20.57;15.27;;;3.70;99.90;;;;;;5011669;28;20489;-71
2020/12/26 03:59:09;;;;;;;21.20;15.63;;;3.60;99.90;;;;;;5012286;28;20474;-71
2020/12/26 04:01:35;;;;;;;26.60;15.03;;;3.60;99.90;;;;;;5011770;28;20520;-71
2020/12/26 04:04:01;;;;;;;24.63;16.07;;;3.60;99.90;;;;;;5010769;28;20450;-71
2020/12/26 04:06:26;;;;;;;20.20;14.10;;;3.60;99.90;;;;;;5012577;28;20191;-71
2020/12/26 04:08:52;;;;;;;25.53;14.67;;;3.60;99.90;;;;;;5012207;28;20184;-71
2020/12/26 04:11:18;;;;;;;19.50;14.53;;;3.60;99.90;;;;;;5011882;28;20208;-72
2020/12/26 04:13:44;;;;;;;17.17;14.00;;;3.70;99.90;;;;;;5013026;28;20229;-71
2020/12/26 04:16:11;;;;;;;17.13;13.83;;;3.80;99.90;;;;;;5012096;28;20450;-71
2020/12/26 04:18:37;;;;;;;19.50;14.80;;;3.70;99.90;;;;;;5012124;28;20517;-71
2020/12/26 04:21:03;;;;;;;19.57;14.20;;;3.80;99.90;;;;;;5011133;28;20828;-71
2020/12/26 04:23:28;;;;;;;20.10;14.83;;;3.90;99.90;;;;;;5011577;28;20449;-72
2020/12/26 04:25:54;;;;;;;18.13;13.87;;;3.90;99.90;;;;;;5012062;28;20184;-71
2020/12/26 04:28:19;;;;;;;15.83;13.60;;;3.90;99.90;;;;;;5011875;28;20263;-71
2020/12/26 04:30:45;;;;;;;15.37;13.30;;;3.90;99.90;;;;;;5011054;28;20263;-72
2020/12/26 04:33:11;;;;;;;24.57;13.67;;;3.90;99.90;;;;;;5011896;28;20183;-72
2020/12/26 04:35:36;;;;;;;18.87;13.57;;;4.00;99.90;;;;;;5010131;28;20187;-72
2020/12/26 04:38:02;;;;;;;21.60;13.90;;;4.10;99.90;;;;;;5012134;28;20176;-72
2020/12/26 04:40:27;;;;;;;21.20;13.43;;;4.20;99.90;;;;;;5010948;28;20219;-72
2020/12/26 04:42:56;;;;;;;18.20;13.47;;;4.20;99.90;;;;;;5000965;28;20224;-72
2020/12/26 04:45:21;;;;;;;15.63;14.07;;;4.30;99.90;;;;;;5008902;28;20208;-72
2020/12/26 04:48:14;;;;;;;15.47;13.77;;;4.30;99.90;;;;;;5043484;28;20497;-72
2020/12/26 04:50:48;;;;;;;16.13;13.20;;;4.20;99.90;;;;;;5002820;28;20249;-72
2020/12/26 04:53:18;;;;;;;17.27;14.20;;;4.20;99.90;;;;;;5008568;28;20477;-72
2020/12/26 04:55:52;;;;;;;15.43;13.83;;;4.30;99.90;;;;;;5012333;28;20459;-71
2020/12/26 04:58:18;;;;;;;22.27;16.30;;;4.40;99.90;;;;;;5011658;28;20435;-71
2020/12/26 05:00:45;;;;;;;19.80;16.50;;;4.20;99.90;;;;;;5011309;28;20441;-71
2020/12/26 05:03:13;;;;;;;30.90;16.33;;;4.20;99.90;;;;;;5011543;28;20493;-72
2020/12/26 05:05:40;;;;;;;27.03;18.10;;;4.10;99.90;;;;;;5010518;28;20439;-72
2020/12/26 05:08:10;;;;;;;29.07;18.90;;;4.00;99.90;;;;;;5006653;28;20501;-72
2020/12/26 05:10:36;;;;;;;27.27;20.03;;;4.00;99.90;;;;;;5009946;28;20477;-72
2020/12/26 05:13:07;;;;;;;24.53;18.70;;;3.90;99.90;;;;;;5039745;28;20455;-72
2020/12/26 05:15:34;;;;;;;29.33;20.77;;;4.00;99.90;;;;;;5005158;28;20422;-72
2020/12/26 05:18:01;;;;;;;28.60;18.23;;;4.00;99.90;;;;;;5011331;28;20435;-72
2020/12/26 05:20:27;;;;;;;22.63;17.57;;;4.00;99.90;;;;;;5010722;28;20430;-72
2020/12/26 05:23:13;;;;;;;21.33;18.93;;;4.10;99.90;;;;;;5010158;28;20480;-72
2020/12/26 05:25:44;;;;;;;26.90;18.47;;;4.00;99.90;;;;;;5011222;28;20430;-72
2020/12/26 05:28:12;;;;;;;32.57;20.60;;;4.10;99.90;;;;;;5010889;28;20438;-71
2020/12/26 05:30:39;;;;;;;21.80;18.10;;;4.10;99.90;;;;;;5042361;28;20523;-71
2020/12/26 05:33:07;;;;;;;27.87;21.20;;;4.10;99.90;;;;;;5009147;28;21014;-71
2020/12/26 05:35:45;;;;;;;27.70;20.50;;;4.00;99.90;;;;;;5011473;28;20423;-71
2020/12/26 05:38:20;;;;;;;57.03;36.47;;;4.10;99.90;;;;;;5011505;28;20986;-72
2020/12/26 05:41:00;;;;;;;32.00;23.07;;;3.90;99.90;;;;;;5002314;28;20434;-71
2020/12/26 05:43:28;;;;;;;38.37;22.67;;;3.80;99.90;;;;;;5011176;28;20513;-72
2020/12/26 05:45:55;;;;;;;35.63;24.10;;;3.80;99.90;;;;;;5011055;28;20809;-72
2020/12/26 05:48:22;;;;;;;32.93;24.47;;;3.70;99.90;;;;;;5010856;28;20462;-72
2020/12/26 05:50:53;;;;;;;28.93;20.77;;;3.70;99.90;;;;;;5011439;28;20451;-72
2020/12/26 05:53:23;;;;;;;33.20;21.70;;;3.70;99.90;;;;;;5008278;28;20438;-72
2020/12/26 05:55:49;;;;;;;45.60;21.87;;;3.70;99.90;;;;;;5008005;28;20488;-72
2020/12/26 05:58:19;;;;;;;29.10;20.80;;;3.70;99.90;;;;;;5008817;28;20533;-72
2020/12/26 06:00:45;;;;;;;35.47;21.30;;;3.70;99.90;;;;;;5004168;28;20180;-72
2020/12/26 06:03:29;;;;;;;27.40;18.80;;;3.70;99.90;;;;;;5011271;28;20569;-72
2020/12/26 06:06:00;;;;;;;29.93;19.63;;;3.70;99.90;;;;;;5011563;28;20509;-71
2020/12/26 06:08:27;;;;;;;25.07;19.90;;;3.60;99.90;;;;;;5010917;28;20442;-71
2020/12/26 06:10:57;;;;;;;25.20;18.07;;;3.60;99.90;;;;;;5003657;28;20451;-71
2020/12/26 06:13:29;;;;;;;25.73;18.87;;;3.60;99.90;;;;;;5008860;28;20435;-71
2020/12/26 06:16:16;;;;;;;25.30;19.00;;;3.60;99.90;;;;;;5011627;28;20423;-71
2020/12/26 06:18:55;;;;;;;22.87;15.97;;;3.60;99.90;;;;;;5042497;28;20435;-72
2020/12/26 06:21:22;;;;;;;23.47;18.30;;;3.60;99.90;;;;;;5010368;28;20831;-71
2020/12/26 06:23:50;;;;;;;39.23;19.00;;;3.60;99.90;;;;;;5012097;28;21110;-71
2020/12/26 06:26:17;;;;;;;30.37;17.00;;;3.60;99.90;;;;;;5013690;28;20438;-71
2020/12/26 06:28:44;;;;;;;23.73;15.33;;;3.60;99.90;;;;;;5015178;28;20454;-71
2020/12/26 06:31:10;;;;;;;29.47;18.97;;;3.60;99.90;;;;;;5014329;28;20501;-71
2020/12/26 06:33:48;;;;;;;25.93;16.20;;;3.60;99.90;;;;;;5012580;28;21187;-71
2020/12/26 06:36:14;;;;;;;22.93;17.10;;;3.50;99.90;;;;;;5013793;28;20440;-71
2020/12/26 06:38:41;;;;;;;22.57;17.13;;;3.50;99.90;;;;;;5014915;28;20427;-72
2020/12/26 06:41:15;;;;;;;29.07;17.47;;;3.50;99.90;;;;;;5013498;28;20209;-71
2020/12/26 06:43:49;;;;;;;28.20;16.87;;;3.40;99.90;;;;;;5014379;28;20445;-72
2020/12/26 06:46:14;;;;;;;24.37;17.97;;;3.40;99.90;;;;;;5014125;28;20557;-71
2020/12/26 06:48:41;;;;;;;29.00;18.33;;;3.40;99.90;;;;;;5013963;28;20536;-72
2020/12/26 06:51:29;;;;;;;24.43;18.10;;;3.30;99.90;;;;;;5012792;28;20323;-72
2020/12/26 06:53:57;;;;;;;24.30;16.13;;;3.30;99.90;;;;;;5009425;28;20441;-72
2020/12/26 06:56:32;;;;;;;25.93;17.07;;;3.20;99.90;;;;;;5012585;28;20447;-72
2020/12/26 06:58:58;;;;;;;21.40;15.77;;;3.30;99.90;;;;;;5014628;28;20481;-72
2020/12/26 07:01:24;;;;;;;22.10;17.23;;;3.20;99.90;;;;;;5013471;28;20805;-72
2020/12/26 07:04:14;;;;;;;25.53;16.70;;;3.20;99.90;;;;;;5010820;28;20489;-72
2020/12/26 07:06:41;;;;;;;27.13;15.00;;;3.20;99.90;;;;;;5007242;28;20439;-72
2020/12/26 07:09:07;;;;;;;22.23;15.73;;;3.20;99.90;;;;;;5011964;28;20860;-72
2020/12/26 07:11:52;;;;;;;20.57;15.80;;;3.10;99.90;;;;;;5012446;28;20463;-72
2020/12/26 07:14:39;;;;;;;27.73;19.70;;;3.10;99.90;;;;;;5006292;28;20944;-72
2020/12/26 07:17:05;;;;;;;21.67;14.93;;;3.10;99.90;;;;;;5008300;28;20441;-72
2020/12/26 07:19:38;;;;;;;21.40;13.20;;;3.10;99.90;;;;;;5002046;28;20429;-72
2020/12/26 07:22:10;;;;;;;17.90;13.17;;;3.10;99.90;;;;;;5011683;28;20454;-72
2020/12/26 07:24:39;;;;;;;17.30;13.90;;;3.10;99.90;;;;;;5012829;28;20443;-72
2020/12/26 07:27:23;;;;;;;19.83;14.10;;;3.10;99.90;;;;;;5012881;28;20517;-72
2020/12/26 07:30:09;;;;;;;17.80;12.20;;;3.10;99.90;;;;;;5013089;28;20424;-72
2020/12/26 07:32:42;;;;;;;21.37;12.00;;;3.10;99.90;;;;;;5010876;28;20473;-72
2020/12/26 07:35:14;;;;;;;19.37;13.67;;;3.20;99.90;;;;;;5013715;28;20964;-71
2020/12/26 07:37:41;;;;;;;16.90;12.13;;;3.10;99.90;;;;;;5013179;28;20430;-71
2020/12/26 07:40:07;;;;;;;17.30;12.13;;;3.10;99.90;;;;;;5013573;28;20423;-71
2020/12/26 07:42:34;;;;;;;17.07;12.10;;;3.10;99.90;;;;;;5011050;28;20494;-71
2020/12/26 07:45:16;;;;;;;19.20;10.93;;;3.10;99.90;;;;;;5012609;28;20577;-72
2020/12/26 07:47:43;;;;;;;22.60;12.60;;;3.10;99.90;;;;;;5011844;28;20530;-71
2020/12/26 07:50:11;;;;;;;13.20;11.33;;;3.10;99.90;;;;;;5013010;28;20460;-71
2020/12/26 07:52:36;;;;;;;18.80;12.03;;;3.20;99.90;;;;;;5010980;28;20470;-71
2020/12/26 07:55:04;;;;;;;12.87;9.93;;;3.10;99.90;;;;;;5012334;28;20492;-72
2020/12/26 07:57:30;;;;;;;14.20;11.83;;;3.10;99.90;;;;;;5011678;28;20541;-72
2020/12/26 07:59:56;;;;;;;16.33;10.27;;;3.00;99.90;;;;;;5012119;28;20450;-72
2020/12/26 08:02:22;;;;;;;16.83;11.23;;;3.10;99.90;;;;;;5011194;28;20466;-72
2020/12/26 08:04:49;;;;;;;17.47;11.10;;;3.00;99.90;;;;;;5012215;28;20438;-72
2020/12/26 08:07:17;;;;;;;15.70;9.43;;;3.00;99.90;;;;;;5013275;28;20445;-72
2020/12/26 08:09:52;;;;;;;13.37;10.30;;;3.00;99.90;;;;;;4998861;28;20522;-72
2020/12/26 08:12:19;;;;;;;18.50;10.47;;;3.00;99.90;;;;;;5011567;28;20509;-71
2020/12/26 08:14:58;;;;;;;11.30;9.83;;;3.20;99.90;;;;;;5012621;28;20437;-71
2020/12/26 08:17:25;;;;;;;13.63;9.97;;;3.10;99.90;;;;;;5006899;28;20422;-72
2020/12/26 08:20:01;;;;;;;12.90;9.47;;;3.20;99.90;;;;;;5009890;28;20485;-72
2020/12/26 08:22:29;;;;;;;12.67;8.93;;;3.20;99.90;;;;;;5010934;28;20538;-72
2020/12/26 08:25:09;;;;;;;12.03;9.77;;;3.40;99.90;;;;;;5011864;28;20517;-72
2020/12/26 08:27:39;;;;;;;11.20;9.17;;;3.60;99.90;;;;;;5011521;28;20493;-71
2020/12/26 08:30:16;;;;;;;9.17;8.27;;;4.00;99.90;;;;;;5012998;28;20539;-72
2020/12/26 08:32:54;;;;;;;8.43;7.50;;;4.40;99.90;;;;;;5011668;28;20987;-72
2020/12/26 08:35:21;;;;;;;11.83;7.60;;;5.00;99.90;;;;;;5044540;28;20462;-72
2020/12/26 08:37:50;;;;;;;12.20;6.30;;;5.90;99.90;;;;;;5012464;28;20427;-72
2020/12/26 08:40:18;;;;;;;8.60;7.33;;;6.30;99.90;;;;;;5012619;28;20427;-72
2020/12/26 08:42:44;;;;;;;7.60;5.70;;;6.70;99.90;;;;;;5038650;28;20840;-72
2020/12/26 08:45:28;;;;;;;10.00;6.10;;;7.50;99.90;;;;;;5012439;28;20434;-72
2020/12/26 08:47:55;;;;;;;6.07;5.30;;;8.00;99.90;;;;;;5007969;28;20593;-72
2020/12/26 08:50:21;;;;;;;10.37;5.40;;;8.60;99.90;;;;;;5011818;28;20439;-72
2020/12/26 08:52:49;;;;;;;7.10;5.27;;;8.90;99.90;;;;;;5008116;28;21086;-73
2020/12/26 08:55:15;;;;;;;6.23;5.63;;;9.60;99.90;;;;;;5011663;28;20450;-73
2020/12/26 08:57:40;;;;;;;5.90;5.40;;;9.70;99.90;;;;;;5004419;28;20435;-73
2020/12/26 09:00:20;;;;;;;11.37;7.93;;;10.50;99.90;;;;;;5012447;28;20661;-73
2020/12/26 09:02:50;;;;;;;6.27;5.70;;;10.50;99.90;;;;;;5008480;28;20683;-73
2020/12/26 09:05:27;;;;;;;6.67;4.90;;;11.00;99.90;;;;;;5012432;28;20909;-73
2020/12/26 09:08:07;;;;;;;7.53;5.80;;;10.70;99.90;;;;;;5008652;28;20426;-73
2020/12/26 09:10:35;;;;;;;7.93;4.60;;;10.90;99.90;;;;;;5008741;28;20946;-73
2020/12/26 09:13:15;;;;;;;5.30;4.80;;;10.60;99.90;;;;;;4998661;28;20447;-73
2020/12/26 09:16:16;;;;;;;6.10;4.60;;;11.40;99.90;;;;;;5012220;28;20501;-73
2020/12/26 09:18:49;;;;;;;8.17;4.90;;;11.90;99.90;;;;;;5011306;28;20835;-73
2020/12/26 09:21:25;;;;;;;10.60;5.37;;;11.00;99.90;;;;;;5008488;28;20451;-73
2020/12/26 09:23:54;;;;;;;14.97;10.90;;;11.30;99.90;;;;;;5002823;28;20430;-73
2020/12/26 09:26:21;;;;;;;7.10;5.20;;;10.80;99.90;;;;;;5011189;28;20525;-73
2020/12/26 09:28:59;;;;;;;5.67;3.87;;;11.70;99.90;;;;;;5009968;28;20535;-73
2020/12/26 09:31:30;;;;;;;6.80;4.27;;;12.20;99.90;;;;;;5011733;28;20508;-73
2020/12/26 09:33:58;;;;;;;4.60;4.07;;;12.20;99.90;;;;;;5011414;28;20511;-73
2020/12/26 09:36:27;;;;;;;4.17;3.77;;;11.10;99.90;;;;;;5011699;28;20431;-73
2020/12/26 09:38:53;;;;;;;6.20;4.30;;;10.80;99.90;;;;;;5011878;28;20429;-73
2020/12/26 09:41:22;;;;;;;6.77;4.47;;;11.30;99.90;;;;;;5011624;28;20501;-73
2020/12/26 09:43:50;;;;;;;5.60;4.37;;;11.30;99.90;;;;;;5010081;28;20459;-73
2020/12/26 09:46:16;;;;;;;6.10;4.23;;;10.80;99.90;;;;;;5011949;28;20427;-73
2020/12/26 09:48:42;;;;;;;5.97;3.90;;;10.90;99.90;;;;;;5011572;28;20486;-73
2020/12/26 09:51:17;;;;;;;5.27;4.60;;;11.30;99.90;;;;;;5011221;28;20999;-72
2020/12/26 09:53:43;;;;;;;7.17;4.60;;;10.80;99.90;;;;;;5011603;28;20250;-72
2020/12/26 09:56:09;;;;;;;6.70;4.50;;;10.90;99.90;;;;;;5012257;28;20419;-72
2020/12/26 09:58:39;;;;;;;4.80;3.97;;;11.10;99.90;;;;;;5015620;28;20793;-72
2020/12/26 10:01:05;;;;;;;7.47;4.13;;;11.60;99.90;;;;;;5010862;28;20453;-72
2020/12/26 10:03:31;;;;;;;5.10;4.47;;;11.70;99.90;;;;;;5009833;28;20414;-72
2020/12/26 10:05:57;;;;;;;4.93;3.90;;;10.70;99.90;;;;;;5015706;28;20442;-72
2020/12/26 10:08:22;;;;;;;6.70;4.40;;;11.10;99.90;;;;;;5030696;28;20480;-73
2020/12/26 10:10:48;;;;;;;5.10;4.27;;;11.50;99.90;;;;;;5015003;28;20250;-73
2020/12/26 10:13:14;;;;;;;4.97;3.60;;;11.60;99.90;;;;;;5015462;28;20172;-73
2020/12/26 10:15:39;;;;;;;7.13;4.33;;;11.60;99.90;;;;;;5014723;28;20282;-73
2020/12/26 10:18:05;;;;;;;8.57;4.47;;;11.20;99.90;;;;;;5014269;28;20267;-73
2020/12/26 10:20:31;;;;;;;6.87;5.20;;;11.10;99.90;;;;;;5014699;28;20188;-73
2020/12/26 10:22:56;;;;;;;5.67;4.40;;;10.60;99.90;;;;;;5015217;28;20890;-73
2020/12/26 10:25:25;;;;;;;12.97;8.40;;;10.90;99.90;;;;;;5014881;28;20263;-73
2020/12/26 10:27:52;;;;;;;7.73;6.90;;;11.50;99.90;;;;;;5015024;28;20250;-73
2020/12/26 10:30:18;;;;;;;5.23;4.60;;;11.20;99.90;;;;;;5011761;28;20928;-73
2020/12/26 10:32:45;;;;;;;7.60;3.63;;;10.80;99.90;;;;;;5013995;28;20470;-73
2020/12/26 10:35:11;;;;;;;4.70;4.20;;;10.90;99.90;;;;;;5014587;28;20439;-73
2020/12/26 10:37:36;;;;;;;7.93;6.37;;;10.40;99.90;;;;;;5013978;28;20427;-72
2020/12/26 10:40:03;;;;;;;6.73;4.17;;;9.80;99.90;;;;;;5014278;28;20641;-72
2020/12/26 10:42:28;;;;;;;4.53;3.53;;;9.10;99.90;;;;;;5011451;28;20800;-72
2020/12/26 10:44:54;;;;;;;8.43;4.17;;;9.10;99.90;;;;;;5014863;28;20469;-72
2020/12/26 10:47:20;;;;;;;9.17;4.40;;;9.10;99.90;;;;;;5012546;28;20191;-73
2020/12/26 10:49:45;;;;;;;4.67;3.87;;;10.00;99.90;;;;;;5013349;28;20188;-72
2020/12/26 10:52:11;;;;;;;6.67;4.33;;;10.10;99.90;;;;;;5014321;28;20208;-73
2020/12/26 10:54:36;;;;;;;4.60;2.87;;;9.60;99.90;;;;;;5011396;28;20272;-73
2020/12/26 10:57:02;;;;;;;4.43;3.20;;;10.10;99.90;;;;;;5010572;28;20184;-73
2020/12/26 10:59:28;;;;;;;5.13;3.10;;;9.50;99.90;;;;;;5000189;28;20228;-73
2020/12/26 11:01:53;;;;;;;6.03;3.17;;;9.30;99.90;;;;;;5012162;28;20298;-72
2020/12/26 11:04:19;;;;;;;7.10;3.33;;;9.20;99.90;;;;;;5013820;28;20186;-72
2020/12/26 11:06:49;;;;;;;5.60;3.37;;;9.50;99.90;;;;;;5012428;28;21710;-72
2020/12/26 11:09:16;;;;;;;6.40;3.30;;;9.10;99.90;;;;;;5013196;28;20187;-72
2020/12/26 11:11:46;;;;;;;4.33;3.20;;;9.00;99.90;;;;;;5012570;28;20465;-72
2020/12/26 11:14:12;;;;;;;4.97;3.40;;;8.90;99.90;;;;;;5028276;28;20442;-72
2020/12/26 11:16:38;;;;;;;6.03;3.50;;;9.00;99.90;;;;;;5013702;28;20776;-73
2020/12/26 11:19:03;;;;;;;9.00;3.53;;;9.20;99.90;;;;;;5013528;28;20856;-72
2020/12/26 11:21:29;;;;;;;9.33;3.40;;;8.70;99.90;;;;;;5013225;28;20192;-72
2020/12/26 11:23:54;;;;;;;4.70;3.10;;;8.40;99.90;;;;;;5003272;28;20246;-72
2020/12/26 11:26:20;;;;;;;3.33;2.70;;;7.90;99.90;;;;;;5012132;28;20188;-72
2020/12/26 11:28:45;;;;;;;8.70;3.60;;;7.90;99.90;;;;;;5010857;28;20231;-72
2020/12/26 11:31:11;;;;;;;3.47;2.30;;;7.50;99.90;;;;;;5012822;28;20215;-72
2020/12/26 11:33:37;;;;;;;2.60;2.10;;;7.40;99.90;;;;;;5013400;28;20580;-72
2020/12/26 11:36:03;;;;;;;6.00;2.67;;;7.00;99.90;;;;;;5013887;28;20180;-72
2020/12/26 11:38:28;;;;;;;4.90;3.20;;;6.90;99.90;;;;;;5009100;28;20439;-72
2020/12/26 11:40:54;;;;;;;4.67;2.70;;;6.40;99.90;;;;;;5013025;28;20625;-72
2020/12/26 11:43:20;;;;;;;6.63;2.30;;;6.20;99.90;;;;;;5010977;28;20184;-73
2020/12/26 11:45:46;;;;;;;6.23;2.97;;;6.20;99.90;;;;;;5013550;28;20283;-72
2020/12/26 11:48:12;;;;;;;8.80;2.47;;;6.40;99.90;;;;;;5011899;28;20287;-72
2020/12/26 11:50:38;;;;;;;3.00;2.10;;;6.30;99.90;;;;;;5026057;28;20446;-72
2020/12/26 11:53:03;;;;;;;3.20;2.50;;;6.30;99.90;;;;;;5009004;28;20204;-72
2020/12/26 11:55:30;;;;;;;6.17;3.60;;;6.20;99.90;;;;;;5011809;28;20199;-72
2020/12/26 11:57:55;;;;;;;6.90;2.53;;;6.50;99.90;;;;;;5009909;28;20199;-72
2020/12/26 12:00:21;;;;;;;13.00;5.80;;;7.10;99.90;;;;;;5009255;28;20474;-72
2020/12/26 12:02:48;;;;;;;4.37;3.07;;;7.60;99.90;;;;;;5012045;28;20315;-72
2020/12/26 12:05:14;;;;;;;6.33;2.40;;;8.00;99.90;;;;;;5010159;28;20180;-72
2020/12/26 12:07:39;;;;;;;2.90;2.00;;;8.40;99.90;;;;;;5013062;28;20438;-72
2020/12/26 12:10:05;;;;;;;5.67;2.33;;;9.10;99.90;;;;;;5012374;28;20192;-72
2020/12/26 12:12:30;;;;;;;4.93;1.93;;;9.90;99.90;;;;;;5012406;28;20227;-73
2020/12/26 12:14:56;;;;;;;5.53;2.07;;;10.60;99.90;;;;;;5012628;28;20240;-73
2020/12/26 12:17:22;;;;;;;4.90;2.17;;;10.90;99.90;;;;;;5012283;28;20657;-73
2020/12/26 12:19:47;;;;;;;3.07;2.20;;;11.00;99.90;;;;;;5011439;28;20175;-72
2020/12/26 12:22:13;;;;;;;5.10;2.53;;;9.90;99.90;;;;;;5012593;28;20262;-73
2020/12/26 12:24:39;;;;;;;6.30;2.17;;;9.20;99.90;;;;;;5007785;28;20188;-72
2020/12/26 12:27:04;;;;;;;1.97;1.70;;;8.10;99.90;;;;;;5008122;28;20274;-72
2020/12/26 12:29:30;;;;;;;3.00;1.70;;;8.00;99.90;;;;;;5003873;28;20185;-72
2020/12/26 12:31:55;;;;;;;3.53;1.53;;;8.00;99.90;;;;;;5011947;28;20211;-72
2020/12/26 12:34:22;;;;;;;2.57;1.50;;;7.90;99.90;;;;;;5012810;28;20633;-72
2020/12/26 12:36:48;;;;;;;3.30;1.60;;;8.00;99.90;;;;;;5012084;28;20164;-72
2020/12/26 12:39:14;;;;;;;2.83;1.40;;;8.00;99.90;;;;;;5010253;28;21003;-72
2020/12/26 12:41:40;;;;;;;1.30;1.20;;;7.90;99.90;;;;;;5008228;28;20478;-72
2020/12/26 12:44:06;;;;;;;3.20;1.47;;;7.90;99.90;;;;;;5007021;28;20619;-73
2020/12/26 12:46:31;;;;;;;1.90;1.20;;;7.50;99.90;;;;;;5008302;28;20534;-72